This is the latest recevied weather packets stored in our database for station/object 9A3SWO. If no packets are shown the sender has not sent any weather packets the latest 10 day(s).
| Time | Temp. | Humidity | Pressure | Rain* | Wind** | Luminosity | Snow |
|---|---|---|---|---|---|---|---|
| 1787731094 | 28.33° C | 49% | 1018.8 hPa | - | - | - | - |
| 1787730492 | 27.78° C | 49% | 1018.7 hPa | - | - | - | - |
| 1787729894 | 27.78° C | 49% | 1018.7 hPa | - | - | - | - |
| 1787729293 | 27.78° C | 49% | 1018.6 hPa | - | - | - | - |
| 1787728693 | 27.78° C | 49% | 1018.7 hPa | - | - | - | - |
| 1787728093 | 27.78° C | 49% | 1018.5 hPa | - | - | - | - |
| 1787727493 | 28.33° C | 48% | 1018.4 hPa | - | - | - | - |
| 1787726892 | 29.44° C | 45% | 1018.2 hPa | - | - | - | - |
| 1787726293 | 30° C | 43% | 1018.2 hPa | - | - | - | - |
| 1787725693 | 29.44° C | 46% | 1018.2 hPa | - | - | - | - |
| 1787725093 | 27.78° C | 50% | 1018.3 hPa | - | - | - | - |
| 1787724492 | 25.56° C | 56% | 1018.3 hPa | - | - | - | - |
| 1787723896 | 25° C | 56% | 1018.3 hPa | - | - | - | - |
| 1787723292 | 25° C | 57% | 1018.4 hPa | - | - | - | - |
| 1787722692 | 25° C | 55% | 1018.3 hPa | - | - | - | - |
| 1787722095 | 25.56° C | 53% | 1018.2 hPa | - | - | - | - |
| 1787721493 | 25° C | 52% | 1018.2 hPa | - | - | - | - |
| 1787720893 | 25° C | 52% | 1018.3 hPa | - | - | - | - |
| 1787720292 | 25° C | 53% | 1018.1 hPa | - | - | - | - |
| 1787719693 | 24.44° C | 54% | 1018.1 hPa | - | - | - | - |
| 1787719093 | 23.89° C | 56% | 1018.1 hPa | - | - | - | - |
| 1787718493 | 25.56° C | 52% | 1017.9 hPa | - | - | - | - |
| 1787717893 | 25° C | 51% | 1017.9 hPa | - | - | - | - |
| 1787717292 | 25.56° C | 51% | 1017.7 hPa | - | - | - | - |
| 1787716692 | 25.56° C | 51% | 1017.7 hPa | - | - | - | - |
* Rain since midnight (hover to see other rain measurements)
** Current wind speed in m/s (hover to see current wind gust speed)